sensor_id;sensor_type;location;lat;lon;timestamp;P1;durP1;ratioP1;P2;durP2;ratioP2
44646;SDS011;56315;-33.902;151.160;2023-04-25T00:00:43;8.52;;;3.50;;
44646;SDS011;56315;-33.902;151.160;2023-04-25T00:03:10;9.60;;;3.40;;
44646;SDS011;56315;-33.902;151.160;2023-04-25T00:08:08;9.00;;;3.67;;
44646;SDS011;56315;-33.902;151.160;2023-04-25T00:10:35;9.43;;;3.92;;
44646;SDS011;56315;-33.902;151.160;2023-04-25T00:13:03;10.52;;;3.35;;
44646;SDS011;56315;-33.902;151.160;2023-04-25T00:15:30;10.57;;;3.85;;
44646;SDS011;56315;-33.902;151.160;2023-04-25T00:17:57;6.43;;;3.03;;
44646;SDS011;56315;-33.902;151.160;2023-04-25T00:20:25;8.85;;;3.60;;
44646;SDS011;56315;-33.902;151.160;2023-04-25T00:22:52;9.55;;;4.20;;
44646;SDS011;56315;-33.902;151.160;2023-04-25T00:25:19;8.98;;;3.70;;
44646;SDS011;56315;-33.902;151.160;2023-04-25T00:27:46;8.20;;;3.72;;
44646;SDS011;56315;-33.902;151.160;2023-04-25T00:30:14;8.52;;;4.13;;
44646;SDS011;56315;-33.902;151.160;2023-04-25T00:32:41;6.30;;;3.67;;
44646;SDS011;56315;-33.902;151.160;2023-04-25T00:35:08;6.88;;;4.30;;
44646;SDS011;56315;-33.902;151.160;2023-04-25T00:37:36;8.65;;;3.60;;
44646;SDS011;56315;-33.902;151.160;2023-04-25T00:40:04;7.15;;;3.70;;
44646;SDS011;56315;-33.902;151.160;2023-04-25T00:42:33;8.20;;;3.63;;
44646;SDS011;56315;-33.902;151.160;2023-04-25T00:45:02;10.38;;;3.60;;
44646;SDS011;56315;-33.902;151.160;2023-04-25T00:47:32;6.32;;;3.33;;
44646;SDS011;56315;-33.902;151.160;2023-04-25T00:50:00;7.68;;;3.75;;
44646;SDS011;56315;-33.902;151.160;2023-04-25T00:52:28;7.13;;;3.00;;
44646;SDS011;56315;-33.902;151.160;2023-04-25T00:54:55;6.63;;;3.25;;
44646;SDS011;56315;-33.902;151.160;2023-04-25T00:57:22;6.20;;;2.83;;
44646;SDS011;56315;-33.902;151.160;2023-04-25T00:59:51;7.03;;;3.00;;
44646;SDS011;56315;-33.902;151.160;2023-04-25T01:02:20;8.52;;;3.05;;
44646;SDS011;56315;-33.902;151.160;2023-04-25T01:04:47;6.50;;;3.45;;
44646;SDS011;56315;-33.902;151.160;2023-04-25T01:07:15;8.75;;;2.92;;
44646;SDS011;56315;-33.902;151.160;2023-04-25T01:09:42;6.20;;;3.22;;
44646;SDS011;56315;-33.902;151.160;2023-04-25T01:12:10;4.85;;;2.90;;
44646;SDS011;56315;-33.902;151.160;2023-04-25T01:14:37;5.97;;;2.88;;
44646;SDS011;56315;-33.902;151.160;2023-04-25T01:17:05;9.75;;;4.68;;
44646;SDS011;56315;-33.902;151.160;2023-04-25T01:19:33;7.15;;;3.47;;
44646;SDS011;56315;-33.902;151.160;2023-04-25T01:22:01;5.72;;;2.90;;
44646;SDS011;56315;-33.902;151.160;2023-04-25T01:24:29;6.13;;;3.10;;
44646;SDS011;56315;-33.902;151.160;2023-04-25T01:27:02;8.63;;;3.60;;
44646;SDS011;56315;-33.902;151.160;2023-04-25T01:29:30;9.30;;;3.80;;
44646;SDS011;56315;-33.902;151.160;2023-04-25T01:31:58;9.05;;;3.83;;
44646;SDS011;56315;-33.902;151.160;2023-04-25T01:34:26;5.05;;;2.80;;
44646;SDS011;56315;-33.902;151.160;2023-04-25T01:36:53;8.55;;;3.70;;
44646;SDS011;56315;-33.902;151.160;2023-04-25T01:39:20;8.38;;;3.28;;
44646;SDS011;56315;-33.902;151.160;2023-04-25T01:41:48;7.82;;;3.40;;
44646;SDS011;56315;-33.902;151.160;2023-04-25T01:44:15;5.68;;;3.20;;
44646;SDS011;56315;-33.902;151.160;2023-04-25T01:46:42;7.35;;;3.83;;
44646;SDS011;56315;-33.902;151.160;2023-04-25T01:49:10;5.53;;;3.00;;
44646;SDS011;56315;-33.902;151.160;2023-04-25T01:51:37;7.32;;;3.53;;
44646;SDS011;56315;-33.902;151.160;2023-04-25T01:54:04;8.02;;;3.55;;
44646;SDS011;56315;-33.902;151.160;2023-04-25T01:56:34;6.40;;;3.63;;
44646;SDS011;56315;-33.902;151.160;2023-04-25T01:59:04;5.65;;;3.05;;
44646;SDS011;56315;-33.902;151.160;2023-04-25T02:01:32;5.75;;;3.20;;
44646;SDS011;56315;-33.902;151.160;2023-04-25T02:04:00;7.40;;;2.90;;
44646;SDS011;56315;-33.902;151.160;2023-04-25T02:06:27;6.45;;;2.67;;
44646;SDS011;56315;-33.902;151.160;2023-04-25T02:08:56;7.10;;;3.22;;
44646;SDS011;56315;-33.902;151.160;2023-04-25T02:11:23;6.53;;;3.13;;
44646;SDS011;56315;-33.902;151.160;2023-04-25T02:13:50;6.43;;;3.30;;
44646;SDS011;56315;-33.902;151.160;2023-04-25T02:16:17;5.68;;;3.03;;
44646;SDS011;56315;-33.902;151.160;2023-04-25T02:18:45;8.48;;;3.47;;
44646;SDS011;56315;-33.902;151.160;2023-04-25T02:21:12;6.13;;;2.60;;
44646;SDS011;56315;-33.902;151.160;2023-04-25T02:23:39;10.68;;;3.28;;
44646;SDS011;56315;-33.902;151.160;2023-04-25T02:26:07;7.38;;;2.80;;
44646;SDS011;56315;-33.902;151.160;2023-04-25T02:28:34;5.30;;;2.70;;
44646;SDS011;56315;-33.902;151.160;2023-04-25T02:31:01;6.85;;;2.88;;
44646;SDS011;56315;-33.902;151.160;2023-04-25T02:33:28;4.85;;;2.70;;
44646;SDS011;56315;-33.902;151.160;2023-04-25T02:35:56;7.95;;;3.05;;
44646;SDS011;56315;-33.902;151.160;2023-04-25T02:38:23;6.40;;;2.38;;
44646;SDS011;56315;-33.902;151.160;2023-04-25T02:40:50;7.15;;;2.80;;
44646;SDS011;56315;-33.902;151.160;2023-04-25T02:43:17;7.95;;;2.90;;
44646;SDS011;56315;-33.902;151.160;2023-04-25T02:45:46;7.13;;;3.60;;
44646;SDS011;56315;-33.902;151.160;2023-04-25T02:48:13;6.55;;;3.22;;
44646;SDS011;56315;-33.902;151.160;2023-04-25T02:50:40;8.85;;;3.22;;
44646;SDS011;56315;-33.902;151.160;2023-04-25T02:53:07;6.70;;;3.10;;
44646;SDS011;56315;-33.902;151.160;2023-04-25T02:55:35;9.57;;;4.07;;
44646;SDS011;56315;-33.902;151.160;2023-04-25T02:58:02;5.57;;;3.05;;
44646;SDS011;56315;-33.902;151.160;2023-04-25T03:00:29;6.80;;;3.00;;
44646;SDS011;56315;-33.902;151.160;2023-04-25T03:02:56;8.38;;;2.97;;
44646;SDS011;56315;-33.902;151.160;2023-04-25T03:05:24;5.90;;;2.83;;
44646;SDS011;56315;-33.902;151.160;2023-04-25T03:07:51;6.18;;;2.40;;
44646;SDS011;56315;-33.902;151.160;2023-04-25T03:10:18;8.00;;;3.13;;
44646;SDS011;56315;-33.902;151.160;2023-04-25T03:12:46;9.73;;;2.88;;
44646;SDS011;56315;-33.902;151.160;2023-04-25T03:15:13;10.10;;;3.70;;
44646;SDS011;56315;-33.902;151.160;2023-04-25T03:17:42;7.60;;;2.40;;
44646;SDS011;56315;-33.902;151.160;2023-04-25T03:20:09;10.48;;;3.45;;
44646;SDS011;56315;-33.902;151.160;2023-04-25T03:22:37;8.15;;;3.50;;
44646;SDS011;56315;-33.902;151.160;2023-04-25T03:25:05;9.70;;;3.70;;
44646;SDS011;56315;-33.902;151.160;2023-04-25T03:27:32;7.68;;;3.33;;
44646;SDS011;56315;-33.902;151.160;2023-04-25T03:30:00;9.93;;;3.38;;
44646;SDS011;56315;-33.902;151.160;2023-04-25T03:32:27;9.85;;;2.90;;
44646;SDS011;56315;-33.902;151.160;2023-04-25T03:34:54;7.97;;;3.00;;
44646;SDS011;56315;-33.902;151.160;2023-04-25T03:37:22;10.88;;;3.25;;
44646;SDS011;56315;-33.902;151.160;2023-04-25T03:39:49;12.55;;;3.45;;
44646;SDS011;56315;-33.902;151.160;2023-04-25T03:42:16;14.75;;;3.90;;
44646;SDS011;56315;-33.902;151.160;2023-04-25T03:44:43;11.43;;;2.95;;
44646;SDS011;56315;-33.902;151.160;2023-04-25T03:47:11;9.52;;;3.45;;
44646;SDS011;56315;-33.902;151.160;2023-04-25T03:49:38;9.57;;;3.33;;
44646;SDS011;56315;-33.902;151.160;2023-04-25T03:52:05;12.70;;;3.70;;
44646;SDS011;56315;-33.902;151.160;2023-04-25T03:54:32;10.57;;;3.38;;
44646;SDS011;56315;-33.902;151.160;2023-04-25T03:57:00;11.32;;;3.47;;
44646;SDS011;56315;-33.902;151.160;2023-04-25T03:59:27;12.43;;;3.30;;
44646;SDS011;56315;-33.902;151.160;2023-04-25T04:01:54;9.43;;;3.05;;
44646;SDS011;56315;-33.902;151.160;2023-04-25T04:04:21;10.63;;;3.75;;
44646;SDS011;56315;-33.902;151.160;2023-04-25T04:06:49;11.30;;;3.22;;
44646;SDS011;56315;-33.902;151.160;2023-04-25T04:09:18;12.13;;;2.90;;
44646;SDS011;56315;-33.902;151.160;2023-04-25T04:11:46;12.88;;;3.78;;
44646;SDS011;56315;-33.902;151.160;2023-04-25T04:14:13;12.73;;;3.53;;
44646;SDS011;56315;-33.902;151.160;2023-04-25T04:16:40;9.73;;;2.95;;
44646;SDS011;56315;-33.902;151.160;2023-04-25T04:19:07;11.68;;;3.20;;
44646;SDS011;56315;-33.902;151.160;2023-04-25T04:21:35;11.23;;;2.97;;
44646;SDS011;56315;-33.902;151.160;2023-04-25T04:24:02;17.05;;;3.30;;
44646;SDS011;56315;-33.902;151.160;2023-04-25T04:26:29;9.68;;;3.97;;
44646;SDS011;56315;-33.902;151.160;2023-04-25T04:28:58;14.30;;;4.05;;
44646;SDS011;56315;-33.902;151.160;2023-04-25T04:31:25;14.10;;;3.53;;
44646;SDS011;56315;-33.902;151.160;2023-04-25T04:33:52;14.25;;;4.10;;
44646;SDS011;56315;-33.902;151.160;2023-04-25T04:36:20;15.05;;;4.32;;
44646;SDS011;56315;-33.902;151.160;2023-04-25T04:38:48;15.10;;;3.85;;
44646;SDS011;56315;-33.902;151.160;2023-04-25T04:41:16;15.75;;;3.63;;
44646;SDS011;56315;-33.902;151.160;2023-04-25T04:43:43;12.40;;;3.45;;
44646;SDS011;56315;-33.902;151.160;2023-04-25T04:46:10;12.07;;;3.70;;
44646;SDS011;56315;-33.902;151.160;2023-04-25T04:48:38;13.07;;;4.60;;
44646;SDS011;56315;-33.902;151.160;2023-04-25T04:51:06;11.02;;;3.35;;
44646;SDS011;56315;-33.902;151.160;2023-04-25T04:53:33;11.57;;;3.55;;
44646;SDS011;56315;-33.902;151.160;2023-04-25T04:56:00;10.93;;;3.58;;
44646;SDS011;56315;-33.902;151.160;2023-04-25T04:58:27;14.98;;;3.70;;
44646;SDS011;56315;-33.902;151.160;2023-04-25T05:00:55;12.98;;;3.33;;
44646;SDS011;56315;-33.902;151.160;2023-04-25T05:03:22;10.98;;;3.35;;
44646;SDS011;56315;-33.902;151.160;2023-04-25T05:05:50;13.23;;;3.47;;
44646;SDS011;56315;-33.902;151.160;2023-04-25T05:08:17;12.85;;;3.50;;
44646;SDS011;56315;-33.902;151.160;2023-04-25T05:10:44;13.43;;;3.20;;
44646;SDS011;56315;-33.902;151.160;2023-04-25T05:13:11;13.02;;;3.63;;
44646;SDS011;56315;-33.902;151.160;2023-04-25T05:15:39;18.05;;;3.65;;
44646;SDS011;56315;-33.902;151.160;2023-04-25T05:18:06;14.13;;;3.60;;
44646;SDS011;56315;-33.902;151.160;2023-04-25T05:20:33;13.23;;;3.28;;
44646;SDS011;56315;-33.902;151.160;2023-04-25T05:23:00;16.73;;;3.75;;
44646;SDS011;56315;-33.902;151.160;2023-04-25T05:25:28;15.77;;;3.78;;
44646;SDS011;56315;-33.902;151.160;2023-04-25T05:27:55;14.10;;;3.72;;
44646;SDS011;56315;-33.902;151.160;2023-04-25T05:30:23;11.38;;;3.90;;
44646;SDS011;56315;-33.902;151.160;2023-04-25T05:32:51;11.65;;;3.58;;
44646;SDS011;56315;-33.902;151.160;2023-04-25T05:35:18;11.75;;;4.22;;
44646;SDS011;56315;-33.902;151.160;2023-04-25T05:37:45;16.90;;;3.63;;
44646;SDS011;56315;-33.902;151.160;2023-04-25T05:40:13;10.27;;;3.30;;
44646;SDS011;56315;-33.902;151.160;2023-04-25T05:42:40;12.48;;;3.63;;
44646;SDS011;56315;-33.902;151.160;2023-04-25T05:45:07;13.70;;;3.63;;
44646;SDS011;56315;-33.902;151.160;2023-04-25T05:47:35;13.98;;;4.05;;
44646;SDS011;56315;-33.902;151.160;2023-04-25T05:50:02;13.50;;;3.83;;
44646;SDS011;56315;-33.902;151.160;2023-04-25T05:52:29;13.48;;;3.38;;
44646;SDS011;56315;-33.902;151.160;2023-04-25T05:54:57;13.27;;;3.35;;
44646;SDS011;56315;-33.902;151.160;2023-04-25T05:57:25;16.13;;;4.40;;
44646;SDS011;56315;-33.902;151.160;2023-04-25T05:59:53;9.40;;;2.80;;
44646;SDS011;56315;-33.902;151.160;2023-04-25T06:02:20;13.05;;;3.72;;
44646;SDS011;56315;-33.902;151.160;2023-04-25T06:04:51;14.60;;;4.03;;
44646;SDS011;56315;-33.902;151.160;2023-04-25T06:07:18;15.80;;;3.90;;
44646;SDS011;56315;-33.902;151.160;2023-04-25T06:09:46;12.00;;;3.40;;
44646;SDS011;56315;-33.902;151.160;2023-04-25T06:12:13;12.57;;;3.60;;
44646;SDS011;56315;-33.902;151.160;2023-04-25T06:14:40;17.20;;;3.75;;
44646;SDS011;56315;-33.902;151.160;2023-04-25T06:17:07;14.40;;;4.13;;
44646;SDS011;56315;-33.902;151.160;2023-04-25T06:19:35;13.45;;;3.70;;
44646;SDS011;56315;-33.902;151.160;2023-04-25T06:22:02;14.70;;;3.60;;
44646;SDS011;56315;-33.902;151.160;2023-04-25T06:24:30;17.30;;;4.55;;
44646;SDS011;56315;-33.902;151.160;2023-04-25T06:26:57;12.90;;;3.10;;
44646;SDS011;56315;-33.902;151.160;2023-04-25T06:29:24;14.73;;;3.88;;
44646;SDS011;56315;-33.902;151.160;2023-04-25T06:31:51;18.02;;;4.10;;
44646;SDS011;56315;-33.902;151.160;2023-04-25T06:34:18;18.52;;;4.22;;
44646;SDS011;56315;-33.902;151.160;2023-04-25T06:36:46;11.48;;;3.35;;
44646;SDS011;56315;-33.902;151.160;2023-04-25T06:39:13;19.38;;;4.53;;
44646;SDS011;56315;-33.902;151.160;2023-04-25T06:41:40;13.90;;;3.92;;
44646;SDS011;56315;-33.902;151.160;2023-04-25T06:44:07;14.57;;;4.28;;
44646;SDS011;56315;-33.902;151.160;2023-04-25T06:46:35;14.50;;;3.50;;
44646;SDS011;56315;-33.902;151.160;2023-04-25T06:49:03;12.57;;;4.22;;
44646;SDS011;56315;-33.902;151.160;2023-04-25T06:51:30;11.95;;;3.38;;
44646;SDS011;56315;-33.902;151.160;2023-04-25T06:53:58;14.73;;;3.50;;
44646;SDS011;56315;-33.902;151.160;2023-04-25T06:56:25;15.95;;;3.45;;
44646;SDS011;56315;-33.902;151.160;2023-04-25T06:58:55;17.13;;;5.05;;
44646;SDS011;56315;-33.902;151.160;2023-04-25T07:01:22;18.80;;;4.55;;
44646;SDS011;56315;-33.902;151.160;2023-04-25T07:03:49;15.77;;;4.05;;
44646;SDS011;56315;-33.902;151.160;2023-04-25T07:06:17;17.50;;;3.60;;
44646;SDS011;56315;-33.902;151.160;2023-04-25T07:08:44;17.00;;;4.80;;
44646;SDS011;56315;-33.902;151.160;2023-04-25T07:11:11;15.13;;;4.53;;
44646;SDS011;56315;-33.902;151.160;2023-04-25T07:13:38;18.80;;;4.10;;
44646;SDS011;56315;-33.902;151.160;2023-04-25T07:16:06;12.32;;;3.35;;
44646;SDS011;56315;-33.902;151.160;2023-04-25T07:18:33;14.85;;;3.25;;
44646;SDS011;56315;-33.902;151.160;2023-04-25T07:21:00;10.95;;;3.17;;
44646;SDS011;56315;-33.902;151.160;2023-04-25T07:23:27;15.32;;;3.78;;
44646;SDS011;56315;-33.902;151.160;2023-04-25T07:25:55;16.15;;;4.72;;
44646;SDS011;56315;-33.902;151.160;2023-04-25T07:28:22;12.27;;;3.17;;
44646;SDS011;56315;-33.902;151.160;2023-04-25T07:30:50;13.82;;;3.28;;
44646;SDS011;56315;-33.902;151.160;2023-04-25T07:33:17;16.90;;;4.18;;
44646;SDS011;56315;-33.902;151.160;2023-04-25T07:35:46;17.98;;;3.80;;
44646;SDS011;56315;-33.902;151.160;2023-04-25T07:38:13;18.25;;;4.30;;
44646;SDS011;56315;-33.902;151.160;2023-04-25T07:40:40;15.00;;;3.83;;
44646;SDS011;56315;-33.902;151.160;2023-04-25T07:43:07;12.32;;;2.63;;
44646;SDS011;56315;-33.902;151.160;2023-04-25T07:45:37;16.65;;;4.03;;
44646;SDS011;56315;-33.902;151.160;2023-04-25T07:48:04;17.88;;;4.28;;
44646;SDS011;56315;-33.902;151.160;2023-04-25T07:50:32;12.52;;;3.63;;
44646;SDS011;56315;-33.902;151.160;2023-04-25T07:52:59;13.15;;;3.80;;
44646;SDS011;56315;-33.902;151.160;2023-04-25T07:55:26;17.48;;;3.97;;
44646;SDS011;56315;-33.902;151.160;2023-04-25T07:57:53;11.40;;;3.15;;
44646;SDS011;56315;-33.902;151.160;2023-04-25T08:00:20;16.48;;;4.55;;
44646;SDS011;56315;-33.902;151.160;2023-04-25T08:02:48;14.10;;;3.53;;
44646;SDS011;56315;-33.902;151.160;2023-04-25T08:05:16;17.02;;;5.15;;
44646;SDS011;56315;-33.902;151.160;2023-04-25T08:07:43;20.25;;;4.97;;
44646;SDS011;56315;-33.902;151.160;2023-04-25T08:10:11;17.60;;;4.35;;
44646;SDS011;56315;-33.902;151.160;2023-04-25T08:12:38;16.33;;;4.15;;
44646;SDS011;56315;-33.902;151.160;2023-04-25T08:15:05;15.95;;;4.43;;
44646;SDS011;56315;-33.902;151.160;2023-04-25T08:17:33;18.40;;;4.68;;
44646;SDS011;56315;-33.902;151.160;2023-04-25T08:20:00;17.58;;;4.32;;
44646;SDS011;56315;-33.902;151.160;2023-04-25T08:22:31;17.42;;;4.68;;
44646;SDS011;56315;-33.902;151.160;2023-04-25T08:24:59;16.10;;;3.92;;
44646;SDS011;56315;-33.902;151.160;2023-04-25T08:27:26;21.73;;;5.63;;
44646;SDS011;56315;-33.902;151.160;2023-04-25T08:29:53;21.08;;;5.85;;
44646;SDS011;56315;-33.902;151.160;2023-04-25T08:32:21;17.88;;;4.30;;
44646;SDS011;56315;-33.902;151.160;2023-04-25T08:34:48;20.08;;;4.60;;
44646;SDS011;56315;-33.902;151.160;2023-04-25T08:37:16;17.70;;;4.32;;
44646;SDS011;56315;-33.902;151.160;2023-04-25T08:39:45;14.82;;;4.10;;
44646;SDS011;56315;-33.902;151.160;2023-04-25T08:42:13;21.55;;;4.85;;
44646;SDS011;56315;-33.902;151.160;2023-04-25T08:44:41;17.92;;;3.90;;
44646;SDS011;56315;-33.902;151.160;2023-04-25T08:47:09;19.90;;;4.40;;
44646;SDS011;56315;-33.902;151.160;2023-04-25T08:49:36;15.88;;;3.75;;
44646;SDS011;56315;-33.902;151.160;2023-04-25T08:52:05;17.40;;;4.13;;
44646;SDS011;56315;-33.902;151.160;2023-04-25T08:54:41;21.02;;;4.55;;
44646;SDS011;56315;-33.902;151.160;2023-04-25T08:57:10;19.17;;;4.97;;
44646;SDS011;56315;-33.902;151.160;2023-04-25T08:59:39;19.05;;;4.68;;
44646;SDS011;56315;-33.902;151.160;2023-04-25T09:02:11;13.55;;;4.05;;
44646;SDS011;56315;-33.902;151.160;2023-04-25T09:04:43;21.38;;;4.30;;
44646;SDS011;56315;-33.902;151.160;2023-04-25T09:07:11;16.92;;;3.92;;
44646;SDS011;56315;-33.902;151.160;2023-04-25T09:09:41;15.07;;;3.35;;
44646;SDS011;56315;-33.902;151.160;2023-04-25T09:12:08;14.90;;;3.88;;
44646;SDS011;56315;-33.902;151.160;2023-04-25T09:14:36;14.30;;;3.83;;
44646;SDS011;56315;-33.902;151.160;2023-04-25T09:17:04;18.13;;;4.63;;
44646;SDS011;56315;-33.902;151.160;2023-04-25T09:19:34;16.13;;;4.80;;
44646;SDS011;56315;-33.902;151.160;2023-04-25T09:22:03;17.95;;;5.88;;
44646;SDS011;56315;-33.902;151.160;2023-04-25T09:27:03;21.48;;;4.55;;
44646;SDS011;56315;-33.902;151.160;2023-04-25T09:29:35;14.63;;;3.60;;
44646;SDS011;56315;-33.902;151.160;2023-04-25T09:34:43;20.48;;;4.88;;
44646;SDS011;56315;-33.902;151.160;2023-04-25T09:37:19;18.50;;;4.68;;
44646;SDS011;56315;-33.902;151.160;2023-04-25T09:39:49;19.13;;;4.35;;
44646;SDS011;56315;-33.902;151.160;2023-04-25T09:42:23;19.23;;;4.05;;
44646;SDS011;56315;-33.902;151.160;2023-04-25T09:44:52;16.00;;;4.35;;
44646;SDS011;56315;-33.902;151.160;2023-04-25T09:47:22;19.83;;;4.72;;
44646;SDS011;56315;-33.902;151.160;2023-04-25T09:49:51;14.23;;;4.18;;
44646;SDS011;56315;-33.902;151.160;2023-04-25T09:52:22;17.85;;;4.10;;
44646;SDS011;56315;-33.902;151.160;2023-04-25T09:54:51;19.90;;;4.20;;
44646;SDS011;56315;-33.902;151.160;2023-04-25T09:57:19;18.35;;;5.07;;
44646;SDS011;56315;-33.902;151.160;2023-04-25T09:59:51;14.65;;;3.70;;
44646;SDS011;56315;-33.902;151.160;2023-04-25T10:02:20;15.88;;;4.00;;
44646;SDS011;56315;-33.902;151.160;2023-04-25T10:04:50;15.65;;;3.88;;
44646;SDS011;56315;-33.902;151.160;2023-04-25T10:07:26;19.00;;;4.95;;
44646;SDS011;56315;-33.902;151.160;2023-04-25T10:10:02;18.48;;;3.97;;
44646;SDS011;56315;-33.902;151.160;2023-04-25T10:12:32;17.00;;;3.65;;
44646;SDS011;56315;-33.902;151.160;2023-04-25T10:15:00;16.55;;;4.47;;
44646;SDS011;56315;-33.902;151.160;2023-04-25T10:17:28;17.00;;;4.50;;
44646;SDS011;56315;-33.902;151.160;2023-04-25T10:19:57;13.90;;;3.33;;
44646;SDS011;56315;-33.902;151.160;2023-04-25T10:22:29;16.98;;;5.22;;
44646;SDS011;56315;-33.902;151.160;2023-04-25T10:25:04;15.98;;;4.10;;
44646;SDS011;56315;-33.902;151.160;2023-04-25T10:27:34;15.93;;;4.55;;
44646;SDS011;56315;-33.902;151.160;2023-04-25T10:32:31;13.80;;;3.58;;
44646;SDS011;56315;-33.902;151.160;2023-04-25T10:35:09;14.10;;;3.40;;
44646;SDS011;56315;-33.902;151.160;2023-04-25T10:37:57;16.60;;;4.03;;
44646;SDS011;56315;-33.902;151.160;2023-04-25T10:40:32;21.40;;;4.85;;
44646;SDS011;56315;-33.902;151.160;2023-04-25T10:46:01;15.30;;;3.20;;
44646;SDS011;56315;-33.902;151.160;2023-04-25T10:48:38;11.90;;;3.28;;
44646;SDS011;56315;-33.902;151.160;2023-04-25T10:51:31;16.88;;;3.35;;
44646;SDS011;56315;-33.902;151.160;2023-04-25T10:54:02;14.68;;;3.72;;
44646;SDS011;56315;-33.902;151.160;2023-04-25T10:56:38;14.30;;;3.42;;
44646;SDS011;56315;-33.902;151.160;2023-04-25T11:01:44;18.20;;;4.45;;
44646;SDS011;56315;-33.902;151.160;2023-04-25T11:04:29;20.13;;;4.82;;
44646;SDS011;56315;-33.902;151.160;2023-04-25T11:07:07;17.63;;;4.13;;
44646;SDS011;56315;-33.902;151.160;2023-04-25T11:09:40;13.10;;;3.80;;
44646;SDS011;56315;-33.902;151.160;2023-04-25T11:12:08;17.40;;;4.68;;
44646;SDS011;56315;-33.902;151.160;2023-04-25T11:14:37;11.05;;;3.70;;
44646;SDS011;56315;-33.902;151.160;2023-04-25T11:17:04;15.10;;;4.65;;
44646;SDS011;56315;-33.902;151.160;2023-04-25T11:19:31;18.60;;;5.43;;
44646;SDS011;56315;-33.902;151.160;2023-04-25T11:21:59;14.65;;;4.65;;
44646;SDS011;56315;-33.902;151.160;2023-04-25T11:27:00;16.20;;;4.40;;
44646;SDS011;56315;-33.902;151.160;2023-04-25T11:32:01;12.50;;;4.03;;
44646;SDS011;56315;-33.902;151.160;2023-04-25T11:34:28;14.25;;;3.85;;
44646;SDS011;56315;-33.902;151.160;2023-04-25T11:36:57;14.70;;;3.58;;
44646;SDS011;56315;-33.902;151.160;2023-04-25T11:39:25;15.85;;;3.50;;
44646;SDS011;56315;-33.902;151.160;2023-04-25T11:41:53;14.25;;;3.88;;
44646;SDS011;56315;-33.902;151.160;2023-04-25T11:44:21;17.38;;;4.10;;
44646;SDS011;56315;-33.902;151.160;2023-04-25T11:46:49;15.93;;;3.80;;
44646;SDS011;56315;-33.902;151.160;2023-04-25T11:49:16;14.27;;;3.67;;
44646;SDS011;56315;-33.902;151.160;2023-04-25T11:51:44;14.88;;;4.35;;
44646;SDS011;56315;-33.902;151.160;2023-04-25T11:54:13;13.40;;;3.38;;
44646;SDS011;56315;-33.902;151.160;2023-04-25T11:56:41;16.27;;;4.05;;
44646;SDS011;56315;-33.902;151.160;2023-04-25T11:59:12;15.90;;;4.53;;
44646;SDS011;56315;-33.902;151.160;2023-04-25T12:01:47;18.40;;;4.30;;
44646;SDS011;56315;-33.902;151.160;2023-04-25T12:04:16;14.85;;;3.75;;
44646;SDS011;56315;-33.902;151.160;2023-04-25T12:06:46;9.93;;;3.53;;
44646;SDS011;56315;-33.902;151.160;2023-04-25T12:09:15;17.23;;;4.13;;
44646;SDS011;56315;-33.902;151.160;2023-04-25T12:11:45;17.75;;;4.00;;
44646;SDS011;56315;-33.902;151.160;2023-04-25T12:14:24;14.77;;;4.03;;
44646;SDS011;56315;-33.902;151.160;2023-04-25T12:16:54;14.32;;;3.97;;
44646;SDS011;56315;-33.902;151.160;2023-04-25T12:19:23;17.42;;;4.60;;
44646;SDS011;56315;-33.902;151.160;2023-04-25T12:21:51;13.88;;;3.80;;
44646;SDS011;56315;-33.902;151.160;2023-04-25T12:24:22;15.57;;;3.75;;
44646;SDS011;56315;-33.902;151.160;2023-04-25T12:26:52;19.67;;;4.90;;
44646;SDS011;56315;-33.902;151.160;2023-04-25T12:29:23;14.30;;;4.35;;
44646;SDS011;56315;-33.902;151.160;2023-04-25T12:31:53;13.95;;;4.28;;
44646;SDS011;56315;-33.902;151.160;2023-04-25T12:34:21;15.25;;;4.78;;
44646;SDS011;56315;-33.902;151.160;2023-04-25T12:36:50;16.27;;;4.28;;
44646;SDS011;56315;-33.902;151.160;2023-04-25T12:39:22;18.77;;;4.95;;
44646;SDS011;56315;-33.902;151.160;2023-04-25T12:41:53;13.57;;;3.45;;
44646;SDS011;56315;-33.902;151.160;2023-04-25T12:44:21;17.90;;;4.00;;
44646;SDS011;56315;-33.902;151.160;2023-04-25T12:46:48;12.75;;;4.22;;
44646;SDS011;56315;-33.902;151.160;2023-04-25T12:49:18;16.38;;;4.72;;
44646;SDS011;56315;-33.902;151.160;2023-04-25T12:51:45;18.77;;;5.40;;
44646;SDS011;56315;-33.902;151.160;2023-04-25T12:54:13;15.52;;;3.90;;
44646;SDS011;56315;-33.902;151.160;2023-04-25T12:56:40;12.63;;;4.53;;
44646;SDS011;56315;-33.902;151.160;2023-04-25T12:59:08;17.17;;;5.22;;
44646;SDS011;56315;-33.902;151.160;2023-04-25T13:01:35;15.48;;;4.57;;
44646;SDS011;56315;-33.902;151.160;2023-04-25T13:04:02;14.18;;;4.10;;
44646;SDS011;56315;-33.902;151.160;2023-04-25T13:06:30;12.65;;;4.00;;
44646;SDS011;56315;-33.902;151.160;2023-04-25T13:08:57;12.38;;;4.60;;
44646;SDS011;56315;-33.902;151.160;2023-04-25T13:11:24;18.10;;;4.20;;
44646;SDS011;56315;-33.902;151.160;2023-04-25T13:13:51;12.60;;;3.15;;
44646;SDS011;56315;-33.902;151.160;2023-04-25T13:16:19;18.63;;;4.65;;
44646;SDS011;56315;-33.902;151.160;2023-04-25T13:18:46;16.25;;;4.20;;
44646;SDS011;56315;-33.902;151.160;2023-04-25T13:21:14;14.05;;;4.10;;
44646;SDS011;56315;-33.902;151.160;2023-04-25T13:23:41;11.85;;;3.85;;
44646;SDS011;56315;-33.902;151.160;2023-04-25T13:26:10;14.30;;;4.22;;
44646;SDS011;56315;-33.902;151.160;2023-04-25T13:28:37;14.48;;;4.38;;
44646;SDS011;56315;-33.902;151.160;2023-04-25T13:31:06;16.77;;;4.30;;
44646;SDS011;56315;-33.902;151.160;2023-04-25T13:33:33;18.40;;;4.95;;
44646;SDS011;56315;-33.902;151.160;2023-04-25T13:36:01;14.10;;;4.13;;
44646;SDS011;56315;-33.902;151.160;2023-04-25T13:38:28;14.82;;;4.00;;
44646;SDS011;56315;-33.902;151.160;2023-04-25T13:40:56;14.30;;;4.80;;
44646;SDS011;56315;-33.902;151.160;2023-04-25T13:43:23;17.83;;;4.45;;
44646;SDS011;56315;-33.902;151.160;2023-04-25T13:45:50;17.65;;;4.82;;
44646;SDS011;56315;-33.902;151.160;2023-04-25T13:48:18;13.95;;;3.92;;
44646;SDS011;56315;-33.902;151.160;2023-04-25T13:50:46;16.20;;;4.13;;
44646;SDS011;56315;-33.902;151.160;2023-04-25T13:53:13;15.10;;;4.60;;
44646;SDS011;56315;-33.902;151.160;2023-04-25T13:55:40;14.02;;;4.22;;
44646;SDS011;56315;-33.902;151.160;2023-04-25T13:58:08;13.00;;;3.92;;
44646;SDS011;56315;-33.902;151.160;2023-04-25T14:00:35;16.08;;;5.28;;
44646;SDS011;56315;-33.902;151.160;2023-04-25T14:03:08;15.52;;;4.45;;
44646;SDS011;56315;-33.902;151.160;2023-04-25T14:05:36;16.95;;;3.97;;
44646;SDS011;56315;-33.902;151.160;2023-04-25T14:08:07;14.90;;;4.05;;
44646;SDS011;56315;-33.902;151.160;2023-04-25T14:10:36;16.60;;;4.88;;
44646;SDS011;56315;-33.902;151.160;2023-04-25T14:13:03;16.83;;;4.68;;
44646;SDS011;56315;-33.902;151.160;2023-04-25T14:15:32;19.35;;;4.53;;
44646;SDS011;56315;-33.902;151.160;2023-04-25T14:18:00;18.05;;;4.82;;
44646;SDS011;56315;-33.902;151.160;2023-04-25T14:20:28;16.42;;;4.70;;
44646;SDS011;56315;-33.902;151.160;2023-04-25T14:22:55;15.77;;;4.93;;
44646;SDS011;56315;-33.902;151.160;2023-04-25T14:25:24;16.73;;;5.07;;